sensor_id;sensor_type;location;lat;lon;timestamp;temperature;humidity
75210;DHT22;63796;53.136;14.882;2023-04-25T00:00:25;9.00;99.90
75210;DHT22;63796;53.136;14.882;2023-04-25T00:03:12;9.00;99.90
75210;DHT22;63796;53.136;14.882;2023-04-25T00:05:40;8.80;99.90
75210;DHT22;63796;53.136;14.882;2023-04-25T00:08:08;8.80;99.90
75210;DHT22;63796;53.136;14.882;2023-04-25T00:10:36;9.00;99.90
75210;DHT22;63796;53.136;14.882;2023-04-25T00:13:03;9.00;99.90
75210;DHT22;63796;53.136;14.882;2023-04-25T00:15:31;9.00;99.90
75210;DHT22;63796;53.136;14.882;2023-04-25T00:17:58;9.00;99.90
75210;DHT22;63796;53.136;14.882;2023-04-25T00:20:26;9.00;99.90
75210;DHT22;63796;53.136;14.882;2023-04-25T00:22:53;9.00;99.90
75210;DHT22;63796;53.136;14.882;2023-04-25T00:25:20;8.80;99.90
75210;DHT22;63796;53.136;14.882;2023-04-25T00:27:48;8.80;99.90
75210;DHT22;63796;53.136;14.882;2023-04-25T00:30:15;8.70;99.90
75210;DHT22;63796;53.136;14.882;2023-04-25T00:32:42;8.80;99.90
75210;DHT22;63796;53.136;14.882;2023-04-25T00:35:10;8.80;99.90
75210;DHT22;63796;53.136;14.882;2023-04-25T00:37:37;8.90;99.90
75210;DHT22;63796;53.136;14.882;2023-04-25T00:40:05;8.90;99.90
75210;DHT22;63796;53.136;14.882;2023-04-25T00:42:33;8.70;99.90
75210;DHT22;63796;53.136;14.882;2023-04-25T00:45:04;8.70;99.90
75210;DHT22;63796;53.136;14.882;2023-04-25T00:47:32;8.60;99.90
75210;DHT22;63796;53.136;14.882;2023-04-25T00:50:00;8.70;99.90
75210;DHT22;63796;53.136;14.882;2023-04-25T00:52:27;8.60;99.90
75210;DHT22;63796;53.136;14.882;2023-04-25T00:54:54;8.50;99.90
75210;DHT22;63796;53.136;14.882;2023-04-25T00:57:21;8.50;99.90
75210;DHT22;63796;53.136;14.882;2023-04-25T00:59:49;8.50;99.90
75210;DHT22;63796;53.136;14.882;2023-04-25T01:02:18;8.50;99.90
75210;DHT22;63796;53.136;14.882;2023-04-25T01:04:47;8.50;99.90
75210;DHT22;63796;53.136;14.882;2023-04-25T01:07:15;8.50;99.90
75210;DHT22;63796;53.136;14.882;2023-04-25T01:09:43;8.40;99.90
75210;DHT22;63796;53.136;14.882;2023-04-25T01:12:10;8.50;99.90
75210;DHT22;63796;53.136;14.882;2023-04-25T01:14:37;8.50;99.90
75210;DHT22;63796;53.136;14.882;2023-04-25T01:17:05;8.60;99.90
75210;DHT22;63796;53.136;14.882;2023-04-25T01:19:34;8.40;99.90
75210;DHT22;63796;53.136;14.882;2023-04-25T01:22:02;8.40;99.90
75210;DHT22;63796;53.136;14.882;2023-04-25T01:24:33;8.30;99.90
75210;DHT22;63796;53.136;14.882;2023-04-25T01:27:01;8.20;99.90
75210;DHT22;63796;53.136;14.882;2023-04-25T01:29:29;8.10;99.90
75210;DHT22;63796;53.136;14.882;2023-04-25T01:31:57;8.10;99.90
75210;DHT22;63796;53.136;14.882;2023-04-25T01:34:25;8.10;99.90
75210;DHT22;63796;53.136;14.882;2023-04-25T01:36:53;8.10;99.90
75210;DHT22;63796;53.136;14.882;2023-04-25T01:39:20;8.10;99.90
75210;DHT22;63796;53.136;14.882;2023-04-25T01:41:47;8.00;99.90
75210;DHT22;63796;53.136;14.882;2023-04-25T01:44:15;8.00;99.90
75210;DHT22;63796;53.136;14.882;2023-04-25T01:46:43;8.10;99.90
75210;DHT22;63796;53.136;14.882;2023-04-25T01:49:10;8.10;99.90
75210;DHT22;63796;53.136;14.882;2023-04-25T01:51:38;8.30;99.90
75210;DHT22;63796;53.136;14.882;2023-04-25T01:54:05;8.40;99.90
75210;DHT22;63796;53.136;14.882;2023-04-25T01:56:32;8.40;99.90
75210;DHT22;63796;53.136;14.882;2023-04-25T01:59:03;8.40;99.90
75210;DHT22;63796;53.136;14.882;2023-04-25T02:01:32;8.30;99.90
75210;DHT22;63796;53.136;14.882;2023-04-25T02:03:59;8.40;99.90
75210;DHT22;63796;53.136;14.882;2023-04-25T02:06:27;8.60;99.90
75210;DHT22;63796;53.136;14.882;2023-04-25T02:08:54;8.60;99.90
75210;DHT22;63796;53.136;14.882;2023-04-25T02:11:21;8.50;99.90
75210;DHT22;63796;53.136;14.882;2023-04-25T02:13:48;8.50;99.90
75210;DHT22;63796;53.136;14.882;2023-04-25T02:16:16;8.40;99.90
75210;DHT22;63796;53.136;14.882;2023-04-25T02:18:44;8.60;99.90
75210;DHT22;63796;53.136;14.882;2023-04-25T02:21:12;8.50;99.90
75210;DHT22;63796;53.136;14.882;2023-04-25T02:23:39;8.50;99.90
75210;DHT22;63796;53.136;14.882;2023-04-25T02:26:07;8.50;99.90
75210;DHT22;63796;53.136;14.882;2023-04-25T02:28:34;8.50;99.90
75210;DHT22;63796;53.136;14.882;2023-04-25T02:31:01;8.60;99.90
75210;DHT22;63796;53.136;14.882;2023-04-25T02:33:29;8.50;99.90
75210;DHT22;63796;53.136;14.882;2023-04-25T02:35:56;8.30;99.90
75210;DHT22;63796;53.136;14.882;2023-04-25T02:38:23;8.30;99.90
75210;DHT22;63796;53.136;14.882;2023-04-25T02:40:50;8.20;99.90
75210;DHT22;63796;53.136;14.882;2023-04-25T02:43:18;8.00;99.90
75210;DHT22;63796;53.136;14.882;2023-04-25T02:45:45;8.00;99.90
75210;DHT22;63796;53.136;14.882;2023-04-25T02:48:12;8.00;99.90
75210;DHT22;63796;53.136;14.882;2023-04-25T02:50:39;8.20;99.90
75210;DHT22;63796;53.136;14.882;2023-04-25T02:53:06;8.20;99.90
75210;DHT22;63796;53.136;14.882;2023-04-25T02:55:34;8.20;99.90
75210;DHT22;63796;53.136;14.882;2023-04-25T02:58:01;8.20;99.90
75210;DHT22;63796;53.136;14.882;2023-04-25T03:00:28;8.20;99.90
75210;DHT22;63796;53.136;14.882;2023-04-25T03:02:56;8.30;99.90
75210;DHT22;63796;53.136;14.882;2023-04-25T03:05:24;8.30;99.90
75210;DHT22;63796;53.136;14.882;2023-04-25T03:07:51;8.20;99.90
75210;DHT22;63796;53.136;14.882;2023-04-25T03:10:18;8.40;99.90
75210;DHT22;63796;53.136;14.882;2023-04-25T03:12:45;8.40;99.90
75210;DHT22;63796;53.136;14.882;2023-04-25T03:15:13;8.50;99.90
75210;DHT22;63796;53.136;14.882;2023-04-25T03:17:40;8.40;99.90
75210;DHT22;63796;53.136;14.882;2023-04-25T03:20:07;8.40;99.90
75210;DHT22;63796;53.136;14.882;2023-04-25T03:22:35;8.20;99.90
75210;DHT22;63796;53.136;14.882;2023-04-25T03:25:02;8.40;99.90
75210;DHT22;63796;53.136;14.882;2023-04-25T03:27:30;8.40;99.90
75210;DHT22;63796;53.136;14.882;2023-04-25T03:29:58;8.30;99.90
75210;DHT22;63796;53.136;14.882;2023-04-25T03:32:25;8.50;99.90
75210;DHT22;63796;53.136;14.882;2023-04-25T03:34:52;8.50;99.90
75210;DHT22;63796;53.136;14.882;2023-04-25T03:37:21;8.50;99.90
75210;DHT22;63796;53.136;14.882;2023-04-25T03:39:48;8.50;99.90
75210;DHT22;63796;53.136;14.882;2023-04-25T03:42:16;8.40;99.90
75210;DHT22;63796;53.136;14.882;2023-04-25T03:44:43;8.30;99.90
75210;DHT22;63796;53.136;14.882;2023-04-25T03:47:11;8.30;99.90
75210;DHT22;63796;53.136;14.882;2023-04-25T03:49:38;8.30;99.90
75210;DHT22;63796;53.136;14.882;2023-04-25T03:52:05;8.40;99.90
75210;DHT22;63796;53.136;14.882;2023-04-25T03:54:32;8.40;99.90
75210;DHT22;63796;53.136;14.882;2023-04-25T03:56:59;8.30;99.90
75210;DHT22;63796;53.136;14.882;2023-04-25T03:59:27;8.40;99.90
75210;DHT22;63796;53.136;14.882;2023-04-25T04:01:55;8.50;99.90
75210;DHT22;63796;53.136;14.882;2023-04-25T04:04:24;8.50;99.90
75210;DHT22;63796;53.136;14.882;2023-04-25T04:06:51;8.40;99.90
75210;DHT22;63796;53.136;14.882;2023-04-25T04:09:19;8.50;99.90
75210;DHT22;63796;53.136;14.882;2023-04-25T04:11:47;8.50;99.90
75210;DHT22;63796;53.136;14.882;2023-04-25T04:14:14;8.60;99.90
75210;DHT22;63796;53.136;14.882;2023-04-25T04:16:41;8.70;99.90
75210;DHT22;63796;53.136;14.882;2023-04-25T04:19:09;8.70;99.90
75210;DHT22;63796;53.136;14.882;2023-04-25T04:21:36;8.60;99.90
75210;DHT22;63796;53.136;14.882;2023-04-25T04:24:03;8.80;99.90
75210;DHT22;63796;53.136;14.882;2023-04-25T04:26:32;8.80;99.90
75210;DHT22;63796;53.136;14.882;2023-04-25T04:29:01;8.70;99.90
75210;DHT22;63796;53.136;14.882;2023-04-25T04:31:28;8.70;99.90
75210;DHT22;63796;53.136;14.882;2023-04-25T04:33:56;8.60;99.90
75210;DHT22;63796;53.136;14.882;2023-04-25T04:36:24;8.70;99.90
75210;DHT22;63796;53.136;14.882;2023-04-25T04:38:53;8.80;99.90
75210;DHT22;63796;53.136;14.882;2023-04-25T04:41:20;8.90;99.90
75210;DHT22;63796;53.136;14.882;2023-04-25T04:43:48;8.90;99.90
75210;DHT22;63796;53.136;14.882;2023-04-25T04:46:15;9.00;99.90
75210;DHT22;63796;53.136;14.882;2023-04-25T04:48:43;8.90;99.90
75210;DHT22;63796;53.136;14.882;2023-04-25T04:51:11;8.90;99.90
75210;DHT22;63796;53.136;14.882;2023-04-25T04:53:38;8.90;99.90
75210;DHT22;63796;53.136;14.882;2023-04-25T04:56:06;8.90;99.90
75210;DHT22;63796;53.136;14.882;2023-04-25T04:58:33;9.00;99.90
75210;DHT22;63796;53.136;14.882;2023-04-25T05:01:01;8.90;99.90
75210;DHT22;63796;53.136;14.882;2023-04-25T05:03:28;9.00;99.90
75210;DHT22;63796;53.136;14.882;2023-04-25T05:05:55;9.00;99.90
75210;DHT22;63796;53.136;14.882;2023-04-25T05:08:23;9.00;99.90
75210;DHT22;63796;53.136;14.882;2023-04-25T05:10:50;9.00;99.90
75210;DHT22;63796;53.136;14.882;2023-04-25T05:13:17;9.10;99.90
75210;DHT22;63796;53.136;14.882;2023-04-25T05:15:44;9.10;99.90
75210;DHT22;63796;53.136;14.882;2023-04-25T05:18:12;9.20;99.90
75210;DHT22;63796;53.136;14.882;2023-04-25T05:20:39;9.30;99.90
75210;DHT22;63796;53.136;14.882;2023-04-25T05:23:06;9.20;99.90
75210;DHT22;63796;53.136;14.882;2023-04-25T05:25:33;9.40;99.90
75210;DHT22;63796;53.136;14.882;2023-04-25T05:28:01;9.50;99.90
75210;DHT22;63796;53.136;14.882;2023-04-25T05:30:28;9.40;99.90
75210;DHT22;63796;53.136;14.882;2023-04-25T05:32:55;9.50;99.90
75210;DHT22;63796;53.136;14.882;2023-04-25T05:35:23;9.50;99.90
75210;DHT22;63796;53.136;14.882;2023-04-25T05:37:51;9.50;99.90
75210;DHT22;63796;53.136;14.882;2023-04-25T05:40:18;9.60;99.90
75210;DHT22;63796;53.136;14.882;2023-04-25T05:42:45;9.60;99.90
75210;DHT22;63796;53.136;14.882;2023-04-25T05:45:13;9.60;99.90
75210;DHT22;63796;53.136;14.882;2023-04-25T05:47:40;9.60;99.90
75210;DHT22;63796;53.136;14.882;2023-04-25T05:50:08;9.90;99.90
75210;DHT22;63796;53.136;14.882;2023-04-25T05:52:35;9.90;99.90
75210;DHT22;63796;53.136;14.882;2023-04-25T05:55:02;9.90;99.90
75210;DHT22;63796;53.136;14.882;2023-04-25T05:57:30;9.80;99.90
75210;DHT22;63796;53.136;14.882;2023-04-25T05:59:58;9.60;99.90
75210;DHT22;63796;53.136;14.882;2023-04-25T06:02:25;9.80;99.90
75210;DHT22;63796;53.136;14.882;2023-04-25T06:04:53;10.10;99.90
75210;DHT22;63796;53.136;14.882;2023-04-25T06:07:20;10.00;99.90
75210;DHT22;63796;53.136;14.882;2023-04-25T06:09:48;9.80;99.90
75210;DHT22;63796;53.136;14.882;2023-04-25T06:12:16;9.90;99.90
75210;DHT22;63796;53.136;14.882;2023-04-25T06:14:43;10.10;99.90
75210;DHT22;63796;53.136;14.882;2023-04-25T06:17:10;10.10;99.90
75210;DHT22;63796;53.136;14.882;2023-04-25T06:19:37;10.50;99.90
75210;DHT22;63796;53.136;14.882;2023-04-25T06:22:05;10.70;99.90
75210;DHT22;63796;53.136;14.882;2023-04-25T06:24:34;10.20;99.90
75210;DHT22;63796;53.136;14.882;2023-04-25T06:27:02;10.10;99.90
75210;DHT22;63796;53.136;14.882;2023-04-25T06:29:29;10.50;99.90
75210;DHT22;63796;53.136;14.882;2023-04-25T06:31:56;10.70;99.90
75210;DHT22;63796;53.136;14.882;2023-04-25T06:34:24;10.80;99.90
75210;DHT22;63796;53.136;14.882;2023-04-25T06:36:51;11.10;99.90
75210;DHT22;63796;53.136;14.882;2023-04-25T06:39:18;11.00;99.90
75210;DHT22;63796;53.136;14.882;2023-04-25T06:41:46;11.10;99.90
75210;DHT22;63796;53.136;14.882;2023-04-25T06:44:14;11.10;99.90
75210;DHT22;63796;53.136;14.882;2023-04-25T06:46:42;10.90;99.90
75210;DHT22;63796;53.136;14.882;2023-04-25T06:49:09;11.20;99.90
75210;DHT22;63796;53.136;14.882;2023-04-25T06:51:36;11.20;99.90
75210;DHT22;63796;53.136;14.882;2023-04-25T06:54:03;11.70;99.90
75210;DHT22;63796;53.136;14.882;2023-04-25T06:56:32;11.60;99.90
75210;DHT22;63796;53.136;14.882;2023-04-25T06:58:59;11.90;99.90
75210;DHT22;63796;53.136;14.882;2023-04-25T07:01:27;12.10;99.90
75210;DHT22;63796;53.136;14.882;2023-04-25T07:03:55;12.60;99.90
75210;DHT22;63796;53.136;14.882;2023-04-25T07:06:23;12.40;99.90
75210;DHT22;63796;53.136;14.882;2023-04-25T07:08:50;12.70;99.90
75210;DHT22;63796;53.136;14.882;2023-04-25T07:11:18;12.40;99.90
75210;DHT22;63796;53.136;14.882;2023-04-25T07:13:45;12.10;99.90
75210;DHT22;63796;53.136;14.882;2023-04-25T07:16:12;12.10;99.90
75210;DHT22;63796;53.136;14.882;2023-04-25T07:18:39;12.00;99.90
75210;DHT22;63796;53.136;14.882;2023-04-25T07:21:07;12.10;99.90
75210;DHT22;63796;53.136;14.882;2023-04-25T07:23:34;11.80;99.90
75210;DHT22;63796;53.136;14.882;2023-04-25T07:26:01;11.70;99.90
75210;DHT22;63796;53.136;14.882;2023-04-25T07:28:29;11.50;99.90
75210;DHT22;63796;53.136;14.882;2023-04-25T07:30:56;11.30;99.90
75210;DHT22;63796;53.136;14.882;2023-04-25T07:33:25;11.50;99.90
75210;DHT22;63796;53.136;14.882;2023-04-25T07:35:52;11.50;99.90
75210;DHT22;63796;53.136;14.882;2023-04-25T07:38:20;11.80;99.90
75210;DHT22;63796;53.136;14.882;2023-04-25T07:40:47;11.90;99.90
75210;DHT22;63796;53.136;14.882;2023-04-25T07:43:15;11.70;99.90
75210;DHT22;63796;53.136;14.882;2023-04-25T07:45:44;11.50;99.90
75210;DHT22;63796;53.136;14.882;2023-04-25T07:48:13;11.70;99.90
75210;DHT22;63796;53.136;14.882;2023-04-25T07:50:45;11.80;99.90
75210;DHT22;63796;53.136;14.882;2023-04-25T07:53:12;12.20;99.90
75210;DHT22;63796;53.136;14.882;2023-04-25T07:55:40;12.60;99.90
75210;DHT22;63796;53.136;14.882;2023-04-25T07:58:07;12.80;99.90
75210;DHT22;63796;53.136;14.882;2023-04-25T08:00:35;12.70;99.90
75210;DHT22;63796;53.136;14.882;2023-04-25T08:03:02;12.40;99.90
75210;DHT22;63796;53.136;14.882;2023-04-25T08:05:30;12.20;99.90
75210;DHT22;63796;53.136;14.882;2023-04-25T08:07:58;12.30;99.90
75210;DHT22;63796;53.136;14.882;2023-04-25T08:10:27;12.20;99.90
75210;DHT22;63796;53.136;14.882;2023-04-25T08:12:54;12.20;99.90
75210;DHT22;63796;53.136;14.882;2023-04-25T08:15:22;11.80;99.90
75210;DHT22;63796;53.136;14.882;2023-04-25T08:17:49;11.60;99.90
75210;DHT22;63796;53.136;14.882;2023-04-25T08:20:16;11.80;99.90
75210;DHT22;63796;53.136;14.882;2023-04-25T08:22:44;11.40;99.90
75210;DHT22;63796;53.136;14.882;2023-04-25T08:25:11;11.30;99.90
75210;DHT22;63796;53.136;14.882;2023-04-25T08:27:38;11.10;99.90
75210;DHT22;63796;53.136;14.882;2023-04-25T08:30:06;11.10;99.90
75210;DHT22;63796;53.136;14.882;2023-04-25T08:32:35;11.10;99.90
75210;DHT22;63796;53.136;14.882;2023-04-25T08:35:05;11.00;99.90
75210;DHT22;63796;53.136;14.882;2023-04-25T08:37:33;11.20;99.90
75210;DHT22;63796;53.136;14.882;2023-04-25T08:40:00;11.40;99.90
75210;DHT22;63796;53.136;14.882;2023-04-25T08:42:27;11.30;99.90
75210;DHT22;63796;53.136;14.882;2023-04-25T08:44:55;11.60;99.90
75210;DHT22;63796;53.136;14.882;2023-04-25T08:47:23;11.80;99.90
75210;DHT22;63796;53.136;14.882;2023-04-25T08:49:52;11.80;99.90
75210;DHT22;63796;53.136;14.882;2023-04-25T08:52:24;11.80;99.90
75210;DHT22;63796;53.136;14.882;2023-04-25T08:54:55;11.80;99.90
75210;DHT22;63796;53.136;14.882;2023-04-25T08:57:24;11.60;99.90
75210;DHT22;63796;53.136;14.882;2023-04-25T08:59:52;11.60;99.90
75210;DHT22;63796;53.136;14.882;2023-04-25T09:02:19;11.50;99.90
75210;DHT22;63796;53.136;14.882;2023-04-25T09:04:48;11.50;99.90
75210;DHT22;63796;53.136;14.882;2023-04-25T09:07:16;11.00;99.90
75210;DHT22;63796;53.136;14.882;2023-04-25T09:09:48;10.90;99.90
75210;DHT22;63796;53.136;14.882;2023-04-25T09:12:16;10.80;99.90
75210;DHT22;63796;53.136;14.882;2023-04-25T09:15:19;10.60;99.90
75210;DHT22;63796;53.136;14.882;2023-04-25T09:17:54;10.50;99.90
75210;DHT22;63796;53.136;14.882;2023-04-25T09:20:23;10.40;99.90
75210;DHT22;63796;53.136;14.882;2023-04-25T09:23:04;10.80;99.90
75210;DHT22;63796;53.136;14.882;2023-04-25T09:25:34;11.00;99.90
75210;DHT22;63796;53.136;14.882;2023-04-25T09:28:03;11.50;99.90
75210;DHT22;63796;53.136;14.882;2023-04-25T09:30:33;11.70;99.90
75210;DHT22;63796;53.136;14.882;2023-04-25T09:33:06;11.70;99.90
75210;DHT22;63796;53.136;14.882;2023-04-25T09:35:44;11.50;99.90
75210;DHT22;63796;53.136;14.882;2023-04-25T09:38:19;11.30;99.90
75210;DHT22;63796;53.136;14.882;2023-04-25T09:40:48;11.20;99.90
75210;DHT22;63796;53.136;14.882;2023-04-25T09:43:22;11.10;99.90
75210;DHT22;63796;53.136;14.882;2023-04-25T09:45:53;11.20;99.90
75210;DHT22;63796;53.136;14.882;2023-04-25T09:48:26;11.30;99.90
75210;DHT22;63796;53.136;14.882;2023-04-25T09:53:40;11.20;99.90
75210;DHT22;63796;53.136;14.882;2023-04-25T09:56:09;11.70;99.90
75210;DHT22;63796;53.136;14.882;2023-04-25T09:58:38;12.30;99.90
75210;DHT22;63796;53.136;14.882;2023-04-25T10:01:08;12.80;99.90
75210;DHT22;63796;53.136;14.882;2023-04-25T10:03:37;13.90;99.90
75210;DHT22;63796;53.136;14.882;2023-04-25T10:06:12;15.10;99.90
75210;DHT22;63796;53.136;14.882;2023-04-25T10:08:45;16.50;99.90
75210;DHT22;63796;53.136;14.882;2023-04-25T10:11:16;16.40;99.90
75210;DHT22;63796;53.136;14.882;2023-04-25T10:13:44;16.90;99.90
75210;DHT22;63796;53.136;14.882;2023-04-25T10:16:12;18.60;98.20
75210;DHT22;63796;53.136;14.882;2023-04-25T10:18:40;18.00;95.40
75210;DHT22;63796;53.136;14.882;2023-04-25T10:21:07;19.70;92.60
75210;DHT22;63796;53.136;14.882;2023-04-25T10:23:35;20.20;90.50
75210;DHT22;63796;53.136;14.882;2023-04-25T10:26:03;19.90;90.20
75210;DHT22;63796;53.136;14.882;2023-04-25T10:28:49;19.50;90.70
75210;DHT22;63796;53.136;14.882;2023-04-25T10:31:31;18.20;91.30
75210;DHT22;63796;53.136;14.882;2023-04-25T10:33:59;16.40;95.60
75210;DHT22;63796;53.136;14.882;2023-04-25T10:36:30;15.00;97.80
75210;DHT22;63796;53.136;14.882;2023-04-25T10:39:03;14.00;99.90
75210;DHT22;63796;53.136;14.882;2023-04-25T10:41:52;13.20;99.90
75210;DHT22;63796;53.136;14.882;2023-04-25T10:44:22;13.30;99.90
75210;DHT22;63796;53.136;14.882;2023-04-25T10:46:49;20.00;80.50
75210;DHT22;63796;53.136;14.882;2023-04-25T10:52:32;26.30;55.00
75210;DHT22;63796;53.136;14.882;2023-04-25T10:54:52;21.00;63.10
75210;DHT22;63796;53.136;14.882;2023-04-25T10:57:29;18.70;73.50
75210;DHT22;63796;53.136;14.882;2023-04-25T11:00:08;17.90;74.90
75210;DHT22;63796;53.136;14.882;2023-04-25T11:02:41;17.30;77.30
75210;DHT22;63796;53.136;14.882;2023-04-25T11:05:10;18.00;76.90
75210;DHT22;63796;53.136;14.882;2023-04-25T11:07:49;17.70;76.40
75210;DHT22;63796;53.136;14.882;2023-04-25T11:10:33;17.20;78.30
75210;DHT22;63796;53.136;14.882;2023-04-25T11:13:04;16.10;81.20
75210;DHT22;63796;53.136;14.882;2023-04-25T11:15:31;15.50;82.60
75210;DHT22;63796;53.136;14.882;2023-04-25T11:17:59;15.10;85.90
75210;DHT22;63796;53.136;14.882;2023-04-25T11:20:26;15.00;86.80
75210;DHT22;63796;53.136;14.882;2023-04-25T11:22:57;14.60;86.70
75210;DHT22;63796;53.136;14.882;2023-04-25T11:25:33;14.30;88.80
75210;DHT22;63796;53.136;14.882;2023-04-25T11:28:03;14.20;89.40
75210;DHT22;63796;53.136;14.882;2023-04-25T11:30:30;14.10;90.40
75210;DHT22;63796;53.136;14.882;2023-04-25T11:32:58;14.00;90.30
75210;DHT22;63796;53.136;14.882;2023-04-25T11:35:26;13.80;91.20
75210;DHT22;63796;53.136;14.882;2023-04-25T11:37:53;14.00;92.30
75210;DHT22;63796;53.136;14.882;2023-04-25T11:40:20;13.80;93.60
75210;DHT22;63796;53.136;14.882;2023-04-25T11:42:48;13.70;94.60
75210;DHT22;63796;53.136;14.882;2023-04-25T11:45:15;13.90;93.80
75210;DHT22;63796;53.136;14.882;2023-04-25T11:47:42;13.80;93.20
75210;DHT22;63796;53.136;14.882;2023-04-25T11:50:10;13.50;93.40
75210;DHT22;63796;53.136;14.882;2023-04-25T11:52:41;13.40;94.10
75210;DHT22;63796;53.136;14.882;2023-04-25T11:55:17;13.50;95.40
75210;DHT22;63796;53.136;14.882;2023-04-25T11:57:48;13.30;94.90
75210;DHT22;63796;53.136;14.882;2023-04-25T12:00:19;12.90;95.60
75210;DHT22;63796;53.136;14.882;2023-04-25T12:02:55;12.70;95.80
75210;DHT22;63796;53.136;14.882;2023-04-25T12:05:26;12.60;95.50
75210;DHT22;63796;53.136;14.882;2023-04-25T12:08:10;12.40;94.90
75210;DHT22;63796;53.136;14.882;2023-04-25T12:10:42;12.80;96.70
75210;DHT22;63796;53.136;14.882;2023-04-25T12:13:20;12.90;94.00
75210;DHT22;63796;53.136;14.882;2023-04-25T12:15:53;13.00;91.00
75210;DHT22;63796;53.136;14.882;2023-04-25T12:18:24;13.20;91.10
75210;DHT22;63796;53.136;14.882;2023-04-25T12:20:55;13.20;86.90
75210;DHT22;63796;53.136;14.882;2023-04-25T12:23:26;13.20;86.70
75210;DHT22;63796;53.136;14.882;2023-04-25T12:25:54;13.30;85.70
75210;DHT22;63796;53.136;14.882;2023-04-25T12:28:24;13.50;86.20
75210;DHT22;63796;53.136;14.882;2023-04-25T12:30:54;13.90;87.70
75210;DHT22;63796;53.136;14.882;2023-04-25T12:33:24;13.50;90.20
75210;DHT22;63796;53.136;14.882;2023-04-25T12:35:53;13.10;89.60
75210;DHT22;63796;53.136;14.882;2023-04-25T12:40:59;12.60;91.40
75210;DHT22;63796;53.136;14.882;2023-04-25T12:43:27;12.70;90.80
75210;DHT22;63796;53.136;14.882;2023-04-25T12:45:55;12.80;90.20
75210;DHT22;63796;53.136;14.882;2023-04-25T12:48:23;12.80;89.90
75210;DHT22;63796;53.136;14.882;2023-04-25T12:50:51;13.10;87.50
75210;DHT22;63796;53.136;14.882;2023-04-25T12:53:19;13.60;86.70
75210;DHT22;63796;53.136;14.882;2023-04-25T12:55:47;13.90;85.40
75210;DHT22;63796;53.136;14.882;2023-04-25T12:58:15;13.60;84.80
75210;DHT22;63796;53.136;14.882;2023-04-25T13:00:44;13.60;84.20
75210;DHT22;63796;53.136;14.882;2023-04-25T13:03:12;13.80;82.10
75210;DHT22;63796;53.136;14.882;2023-04-25T13:05:40;13.80;79.60
75210;DHT22;63796;53.136;14.882;2023-04-25T13:08:08;13.80;78.00
75210;DHT22;63796;53.136;14.882;2023-04-25T13:10:35;13.40;78.40
75210;DHT22;63796;53.136;14.882;2023-04-25T13:13:05;13.30;80.20
75210;DHT22;63796;53.136;14.882;2023-04-25T13:15:32;13.60;78.60
75210;DHT22;63796;53.136;14.882;2023-04-25T13:17:59;13.50;78.80
75210;DHT22;63796;53.136;14.882;2023-04-25T13:20:27;13.70;79.30
75210;DHT22;63796;53.136;14.882;2023-04-25T13:22:54;13.80;79.50
75210;DHT22;63796;53.136;14.882;2023-04-25T13:25:21;14.10;78.80
75210;DHT22;63796;53.136;14.882;2023-04-25T13:27:49;14.20;78.60
75210;DHT22;63796;53.136;14.882;2023-04-25T13:30:16;13.90;77.20
75210;DHT22;63796;53.136;14.882;2023-04-25T13:32:43;13.80;78.30
75210;DHT22;63796;53.136;14.882;2023-04-25T13:35:11;14.50;78.40
75210;DHT22;63796;53.136;14.882;2023-04-25T13:37:40;14.70;78.20
75210;DHT22;63796;53.136;14.882;2023-04-25T13:40:09;14.90;78.30
75210;DHT22;63796;53.136;14.882;2023-04-25T13:42:38;14.50;75.00
75210;DHT22;63796;53.136;14.882;2023-04-25T13:45:06;14.50;76.20
75210;DHT22;63796;53.136;14.882;2023-04-25T13:47:34;14.70;73.10
75210;DHT22;63796;53.136;14.882;2023-04-25T13:50:02;15.00;72.60
75210;DHT22;63796;53.136;14.882;2023-04-25T13:52:30;14.60;71.20
75210;DHT22;63796;53.136;14.882;2023-04-25T13:54:58;14.40;74.60
75210;DHT22;63796;53.136;14.882;2023-04-25T13:57:26;14.70;74.80
75210;DHT22;63796;53.136;14.882;2023-04-25T13:59:53;15.10;76.00
75210;DHT22;63796;53.136;14.882;2023-04-25T14:02:20;14.60;74.80
75210;DHT22;63796;53.136;14.882;2023-04-25T14:04:48;14.10;77.20
75210;DHT22;63796;53.136;14.882;2023-04-25T14:07:15;13.70;76.10
75210;DHT22;63796;53.136;14.882;2023-04-25T14:09:46;14.20;77.10
75210;DHT22;63796;53.136;14.882;2023-04-25T14:12:13;14.20;77.00
75210;DHT22;63796;53.136;14.882;2023-04-25T14:14:40;13.80;77.90
75210;DHT22;63796;53.136;14.882;2023-04-25T14:17:08;13.40;78.30
75210;DHT22;63796;53.136;14.882;2023-04-25T14:19:36;13.20;80.40
75210;DHT22;63796;53.136;14.882;2023-04-25T14:22:05;13.40;80.90
75210;DHT22;63796;53.136;14.882;2023-04-25T14:24:32;13.80;79.50
75210;DHT22;63796;53.136;14.882;2023-04-25T14:27:00;13.70;79.00
75210;DHT22;63796;53.136;14.882;2023-04-25T14:29:27;13.40;78.70
75210;DHT22;63796;53.136;14.882;2023-04-25T14:31:55;13.30;80.00
75210;DHT22;63796;53.136;14.882;2023-04-25T14:34:27;12.80;80.60
75210;DHT22;63796;53.136;14.882;2023-04-25T14:36:54;12.60;81.90
75210;DHT22;63796;53.136;14.882;2023-04-25T14:39:21;12.60;82.40
75210;DHT22;63796;53.136;14.882;2023-04-25T14:41:49;12.40;83.50
75210;DHT22;63796;53.136;14.882;2023-04-25T14:44:16;12.20;84.90
75210;DHT22;63796;53.136;14.882;2023-04-25T14:46:43;12.10;86.70
75210;DHT22;63796;53.136;14.882;2023-04-25T14:49:11;12.10;87.50
75210;DHT22;63796;53.136;14.882;2023-04-25T14:51:39;12.00;88.00
75210;DHT22;63796;53.136;14.882;2023-04-25T14:54:06;11.70;87.60
75210;DHT22;63796;53.136;14.882;2023-04-25T14:56:34;11.70;89.80
75210;DHT22;63796;53.136;14.882;2023-04-25T14:59:02;11.60;90.10
75210;DHT22;63796;53.136;14.882;2023-04-25T15:01:29;11.60;90.10
75210;DHT22;63796;53.136;14.882;2023-04-25T15:03:56;11.50;90.30
75210;DHT22;63796;53.136;14.882;2023-04-25T15:06:25;11.30;90.50
75210;DHT22;63796;53.136;14.882;2023-04-25T15:08:53;11.40;91.30
75210;DHT22;63796;53.136;14.882;2023-04-25T15:11:20;11.40;91.50
75210;DHT22;63796;53.136;14.882;2023-04-25T15:13:48;11.60;92.70
75210;DHT22;63796;53.136;14.882;2023-04-25T15:16:16;11.60;91.80
75210;DHT22;63796;53.136;14.882;2023-04-25T15:18:43;11.50;91.70
75210;DHT22;63796;53.136;14.882;2023-04-25T15:21:11;11.60;91.20
75210;DHT22;63796;53.136;14.882;2023-04-25T15:23:38;11.60;91.60
75210;DHT22;63796;53.136;14.882;2023-04-25T15:26:06;11.80;91.80
75210;DHT22;63796;53.136;14.882;2023-04-25T15:28:33;11.80;91.60
75210;DHT22;63796;53.136;14.882;2023-04-25T15:31:01;11.80;90.80
75210;DHT22;63796;53.136;14.882;2023-04-25T15:33:28;11.80;91.30
75210;DHT22;63796;53.136;14.882;2023-04-25T15:35:55;12.20;91.00
75210;DHT22;63796;53.136;14.882;2023-04-25T15:38:24;12.40;91.40